createdAt,value
2023-04-16T00:01:05.105Z,0.54
2023-04-16T00:02:22.183Z,0.51
2023-04-16T00:03:39.411Z,0.44
2023-04-16T00:04:56.094Z,0.36
2023-04-16T00:06:13.057Z,0.41
2023-04-16T00:07:30.123Z,0.39
2023-04-16T00:08:47.062Z,0.35
2023-04-16T00:10:04.080Z,0.23
2023-04-16T00:11:21.094Z,0.34
2023-04-16T00:12:38.162Z,0.54
2023-04-16T00:13:55.131Z,0.53
2023-04-16T00:15:12.103Z,0.52
2023-04-16T00:16:29.117Z,0.44
2023-04-16T00:17:46.127Z,0.38
2023-04-16T00:19:03.094Z,0.43
2023-04-16T00:20:20.078Z,0.52
2023-04-16T00:21:37.360Z,0.57
2023-04-16T00:22:54.151Z,0.63
2023-04-16T00:24:11.085Z,0.59
2023-04-16T00:25:28.083Z,0.45
2023-04-16T00:26:45.114Z,0.62
2023-04-16T00:28:02.106Z,0.41
2023-04-16T00:29:19.200Z,0.13
2023-04-16T00:30:36.111Z,0
2023-04-16T00:31:53.106Z,0
2023-04-16T00:33:10.087Z,0
2023-04-16T00:34:27.150Z,0.36
2023-04-16T00:35:44.120Z,0.38
2023-04-16T00:37:01.138Z,0.49
2023-04-16T00:38:18.121Z,0.7
2023-04-16T00:39:35.153Z,0.56
2023-04-16T00:40:52.133Z,0.47
2023-04-16T00:42:09.126Z,0.64
2023-04-16T00:43:26.169Z,0.71
2023-04-16T00:44:43.156Z,0.52
2023-04-16T00:46:00.241Z,0.48
2023-04-16T00:47:17.164Z,0.41
2023-04-16T00:48:34.134Z,0.19
2023-04-16T00:49:51.176Z,0.06
2023-04-16T00:51:08.151Z,0.34
2023-04-16T00:52:25.159Z,0.19
2023-04-16T00:53:42.136Z,0.07
2023-04-16T00:54:59.135Z,0.17
2023-04-16T00:56:17.372Z,0.37
2023-04-16T00:57:33.529Z,0.17
2023-04-16T00:58:50.145Z,0
2023-04-16T01:00:07.174Z,0.29
2023-04-16T01:01:24.273Z,0.36
2023-04-16T01:02:41.250Z,0.28
2023-04-16T01:03:58.219Z,0
2023-04-16T01:05:15.140Z,0
2023-04-16T01:06:32.159Z,0
2023-04-16T01:07:49.377Z,0
2023-04-16T01:09:06.162Z,0
2023-04-16T01:10:23.165Z,0.38
2023-04-16T01:11:40.180Z,0.25
2023-04-16T01:12:57.203Z,0.28
2023-04-16T01:14:14.163Z,0.43
2023-04-16T01:15:31.199Z,0.38
2023-04-16T01:16:48.165Z,0.09
2023-04-16T01:18:05.222Z,0
2023-04-16T01:19:22.169Z,0.24
2023-04-16T01:20:39.178Z,0.29
2023-04-16T01:21:56.284Z,0.34
2023-04-16T01:23:13.195Z,0.44
2023-04-16T01:24:30.220Z,0.4
2023-04-16T01:25:47.163Z,0.5
2023-04-16T01:27:04.257Z,0.49
2023-04-16T01:28:21.285Z,0.56
2023-04-16T01:29:38.206Z,0.68
2023-04-16T01:30:55.216Z,0.62
2023-04-16T01:32:12.276Z,0.58
2023-04-16T01:33:29.225Z,0.58
2023-04-16T01:34:46.188Z,0.4
2023-04-16T01:36:03.184Z,0.34
2023-04-16T01:37:20.362Z,0.37
2023-04-16T01:38:37.232Z,0.28
2023-04-16T01:39:54.199Z,0.38
2023-04-16T01:41:11.229Z,0.48
2023-04-16T01:42:28.227Z,0.42
2023-04-16T01:43:45.249Z,0.48
2023-04-16T01:45:02.231Z,0.38
2023-04-16T01:46:19.359Z,0.48
2023-04-16T01:47:36.271Z,0.53
2023-04-16T01:48:53.218Z,0.48
2023-04-16T01:50:10.242Z,0.51
2023-04-16T01:51:27.230Z,0.59
2023-04-16T01:52:44.560Z,0.38
2023-04-16T01:54:01.266Z,0.33
2023-04-16T01:55:18.233Z,0.44
2023-04-16T01:56:35.213Z,0.45
2023-04-16T01:57:52.249Z,0.57
2023-04-16T01:59:09.483Z,0.57
2023-04-16T02:00:26.260Z,0.42
2023-04-16T02:01:43.269Z,0.31
2023-04-16T02:03:00.544Z,0.26
2023-04-16T02:04:17.281Z,0.37
2023-04-16T02:05:34.248Z,0.41
2023-04-16T02:06:51.243Z,0.6
2023-04-16T02:08:08.264Z,0.19
2023-04-16T02:09:25.261Z,0
2023-04-16T02:10:42.260Z,0
2023-04-16T02:11:59.249Z,0
2023-04-16T02:13:16.315Z,0
2023-04-16T02:14:33.279Z,0
2023-04-16T02:15:50.253Z,0
2023-04-16T02:17:07.373Z,0
2023-04-16T02:18:24.278Z,0
2023-04-16T02:19:41.309Z,0
2023-04-16T02:20:58.253Z,0
2023-04-16T02:22:15.272Z,0
2023-04-16T02:23:32.253Z,0
2023-04-16T02:24:49.280Z,0
2023-04-16T02:26:06.261Z,0
2023-04-16T02:27:23.333Z,0
2023-04-16T02:28:40.287Z,0
2023-04-16T02:29:57.277Z,0
2023-04-16T02:31:14.298Z,0
2023-04-16T02:32:31.303Z,0
2023-04-16T02:33:48.356Z,0
2023-04-16T02:35:05.263Z,0
2023-04-16T02:36:22.262Z,0
2023-04-16T02:37:39.280Z,0
2023-04-16T02:38:56.324Z,0
2023-04-16T02:40:13.293Z,0
2023-04-16T02:41:30.318Z,0
2023-04-16T02:42:47.268Z,0.35
2023-04-16T02:44:04.316Z,0.26
2023-04-16T02:45:21.402Z,0.32
2023-04-16T02:46:38.280Z,0.26
2023-04-16T02:47:55.318Z,0.24
2023-04-16T02:49:12.324Z,0.3
2023-04-16T02:50:29.321Z,0.25
2023-04-16T02:51:46.337Z,0.07
2023-04-16T02:53:03.381Z,0
2023-04-16T02:54:20.312Z,0
2023-04-16T02:55:37.294Z,0
2023-04-16T02:56:54.331Z,0.24
2023-04-16T02:58:11.335Z,0.31
2023-04-16T02:59:28.288Z,0.18
2023-04-16T03:00:45.293Z,0.23
2023-04-16T03:02:02.394Z,0
2023-04-16T03:03:19.393Z,0
2023-04-16T03:04:36.411Z,0
2023-04-16T03:05:53.315Z,0
2023-04-16T03:07:10.315Z,0
2023-04-16T03:08:27.340Z,0
2023-04-16T03:09:44.352Z,0
2023-04-16T03:11:01.440Z,0
2023-04-16T03:12:18.327Z,0
2023-04-16T03:13:35.359Z,0
2023-04-16T03:14:52.360Z,0
2023-04-16T03:16:09.395Z,0
2023-04-16T03:17:26.360Z,0
2023-04-16T03:18:43.357Z,0
2023-04-16T03:20:00.377Z,0
2023-04-16T03:21:17.330Z,0
2023-04-16T03:22:34.352Z,0
2023-04-16T03:23:51.356Z,0.12
2023-04-16T03:25:08.370Z,0.31
2023-04-16T03:26:25.333Z,0.31
2023-04-16T03:27:42.340Z,0.36
2023-04-16T03:28:59.355Z,0.46
2023-04-16T03:30:16.441Z,0.38
2023-04-16T03:31:33.437Z,0.17
2023-04-16T03:32:50.402Z,0
2023-04-16T03:34:07.366Z,0
2023-04-16T03:35:24.351Z,0
2023-04-16T03:36:41.383Z,0
2023-04-16T03:37:58.349Z,0
2023-04-16T03:39:15.385Z,0
2023-04-16T03:40:32.367Z,0
2023-04-16T03:41:49.417Z,0.15
2023-04-16T03:43:06.388Z,0.42
2023-04-16T03:44:23.379Z,0.42
2023-04-16T03:45:40.360Z,0.33
2023-04-16T03:46:57.440Z,0.44
2023-04-16T03:48:14.450Z,0.44
2023-04-16T03:49:31.461Z,0.21
2023-04-16T03:50:48.405Z,0
2023-04-16T03:52:05.424Z,0
2023-04-16T03:53:22.411Z,0
2023-04-16T03:54:39.407Z,0
2023-04-16T03:55:56.390Z,0
2023-04-16T03:57:13.392Z,0.16
2023-04-16T03:58:30.426Z,0.38
2023-04-16T03:59:47.422Z,0.44
2023-04-16T04:01:04.407Z,0.49
2023-04-16T04:02:22.362Z,0.46
2023-04-16T04:03:40.095Z,0.46
2023-04-16T04:04:56.604Z,0.4
2023-04-16T04:06:13.414Z,0.25
2023-04-16T04:07:30.419Z,0.25
2023-04-16T04:08:47.477Z,0.43
2023-04-16T04:10:04.436Z,0.3
2023-04-16T04:11:21.434Z,0.2
2023-04-16T04:12:38.418Z,0
2023-04-16T04:13:55.474Z,0
2023-04-16T04:15:12.544Z,0
2023-04-16T04:16:29.421Z,0.36
2023-04-16T04:17:46.495Z,0.16
2023-04-16T04:19:03.451Z,0
2023-04-16T04:20:20.468Z,0
2023-04-16T04:21:37.454Z,0
2023-04-16T04:22:54.415Z,0.27
2023-04-16T04:24:11.508Z,0.62
2023-04-16T04:25:28.501Z,0.56
2023-04-16T04:26:45.889Z,0.27
2023-04-16T04:28:02.440Z,0.21
2023-04-16T04:29:19.616Z,0.31
2023-04-16T04:30:36.471Z,0.19
2023-04-16T04:31:53.488Z,0
2023-04-16T04:33:10.442Z,0
2023-04-16T04:34:27.427Z,0
2023-04-16T04:35:44.517Z,0.45
2023-04-16T04:37:01.489Z,0.49
2023-04-16T04:38:18.441Z,0.65
2023-04-16T04:39:35.499Z,0.57
2023-04-16T04:40:52.471Z,0.48
2023-04-16T04:42:09.526Z,0.47
2023-04-16T04:43:26.468Z,0.67
2023-04-16T04:44:43.454Z,0.24
2023-04-16T04:46:00.508Z,0.46
2023-04-16T04:47:17.540Z,0.52
2023-04-16T04:48:34.550Z,0.74
2023-04-16T04:49:51.537Z,0.81
2023-04-16T04:51:08.490Z,0.69
2023-04-16T04:52:25.472Z,0.72
2023-04-16T04:53:42.487Z,0.53
2023-04-16T04:54:59.506Z,0.62
2023-04-16T04:56:16.639Z,0.74
2023-04-16T04:57:33.483Z,0.67
2023-04-16T04:58:50.601Z,0.92
2023-04-16T05:00:07.504Z,0.72
2023-04-16T05:01:25.581Z,0.41
2023-04-16T05:02:42.553Z,0.62
2023-04-16T05:03:59.552Z,0.52
2023-04-16T05:05:16.497Z,0.47
2023-04-16T05:06:33.561Z,0.39
2023-04-16T05:07:50.502Z,0.65
2023-04-16T05:09:07.643Z,0.25
2023-04-16T05:10:24.518Z,0.46
2023-04-16T05:11:41.509Z,0.73
2023-04-16T05:12:58.524Z,1.24
2023-04-16T05:14:15.534Z,0.86
2023-04-16T05:15:32.505Z,0.73
2023-04-16T05:16:49.512Z,0.57
2023-04-16T05:18:06.487Z,0.33
2023-04-16T05:19:23.528Z,0.46
2023-04-16T05:20:40.506Z,0.24
2023-04-16T05:21:57.579Z,0.48
2023-04-16T05:23:14.514Z,0.81
2023-04-16T05:24:31.524Z,0.39
2023-04-16T05:25:48.534Z,0.43
2023-04-16T05:27:05.532Z,0.43
2023-04-16T05:28:22.538Z,0
2023-04-16T05:29:39.533Z,0
2023-04-16T05:30:56.664Z,0.56
2023-04-16T05:32:13.534Z,0
2023-04-16T05:33:30.548Z,0.58
2023-04-16T05:34:47.529Z,0.78
2023-04-16T05:36:04.587Z,0.88
2023-04-16T05:37:21.553Z,0.71
2023-04-16T05:38:38.554Z,0.97
2023-04-16T05:39:55.567Z,0.38
2023-04-16T05:41:12.565Z,0.72
2023-04-16T05:42:29.597Z,0.59
2023-04-16T05:43:46.547Z,0.94
2023-04-16T05:45:03.622Z,1.02
2023-04-16T05:46:20.595Z,0.52
2023-04-16T05:47:37.645Z,0.41
2023-04-16T05:48:54.601Z,0.6
2023-04-16T05:50:11.588Z,0.83
2023-04-16T05:51:28.542Z,0.17
2023-04-16T05:52:45.653Z,0.54
2023-04-16T05:54:02.585Z,0.4
2023-04-16T05:55:19.546Z,0.52
2023-04-16T05:56:36.776Z,1
2023-04-16T05:57:53.576Z,0.85
2023-04-16T05:59:10.765Z,0.37
2023-04-16T06:00:27.550Z,0.53
2023-04-16T06:01:44.571Z,0.88
2023-04-16T06:03:01.709Z,0.35
2023-04-16T06:04:18.667Z,0.72
2023-04-16T06:05:35.643Z,1.37
2023-04-16T06:06:52.642Z,1.02
2023-04-16T06:08:09.605Z,1.09
2023-04-16T06:09:26.586Z,1.33
2023-04-16T06:10:43.602Z,1.24
2023-04-16T06:12:00.596Z,1.81
2023-04-16T06:13:17.580Z,1.73
2023-04-16T06:14:34.591Z,1.22
2023-04-16T06:15:51.652Z,2.37
2023-04-16T06:17:08.603Z,1.04
2023-04-16T06:18:25.579Z,1.76
2023-04-16T06:19:42.651Z,1.73
2023-04-16T06:20:59.577Z,1.03
2023-04-16T06:22:16.591Z,3.16
2023-04-16T06:23:33.614Z,2.29
2023-04-16T06:24:51.036Z,1.99
2023-04-16T06:26:07.601Z,1.91
2023-04-16T06:27:24.744Z,2.6
2023-04-16T06:28:41.628Z,2.32
2023-04-16T06:29:58.633Z,2.17
2023-04-16T06:31:15.641Z,0.57
2023-04-16T06:32:32.674Z,0.56
2023-04-16T06:33:49.669Z,0.66
2023-04-16T06:35:06.799Z,1.33
2023-04-16T06:36:23.635Z,1.35
2023-04-16T06:37:40.622Z,2.23
2023-04-16T06:38:57.642Z,1.59
2023-04-16T06:40:14.700Z,1.77
2023-04-16T06:41:31.616Z,1.17
2023-04-16T06:42:48.663Z,0.5
2023-04-16T06:44:05.633Z,0.19
2023-04-16T06:45:22.630Z,2.03
2023-04-16T06:46:39.636Z,2.02
2023-04-16T06:47:56.691Z,2.27
2023-04-16T06:49:13.688Z,1.65
2023-04-16T06:50:30.641Z,0.87
2023-04-16T06:51:47.757Z,0.3
2023-04-16T06:53:04.757Z,0.12
2023-04-16T06:54:22.525Z,0.09
2023-04-16T06:55:39.631Z,1.65
2023-04-16T06:56:56.645Z,3.2
2023-04-16T06:58:13.749Z,2.61
2023-04-16T06:59:30.672Z,1.5
2023-04-16T07:00:47.760Z,2.36
2023-04-16T07:02:04.734Z,2.53
2023-04-16T07:03:21.768Z,2.26
2023-04-16T07:04:38.660Z,2.48
2023-04-16T07:05:55.652Z,1.86
2023-04-16T07:07:12.653Z,2.24
2023-04-16T07:08:30.303Z,1.2
2023-04-16T07:09:46.689Z,2.12
2023-04-16T07:11:03.672Z,1.08
2023-04-16T07:12:22.456Z,1.22
2023-04-16T07:13:37.734Z,1.27
2023-04-16T07:14:54.701Z,1.54
2023-04-16T07:16:11.765Z,1.24
2023-04-16T07:17:28.690Z,0.67
2023-04-16T07:18:45.702Z,0.6
2023-04-16T07:20:02.758Z,0.94
2023-04-16T07:21:19.730Z,0.7
2023-04-16T07:22:36.731Z,0.29
2023-04-16T07:23:53.689Z,1.75
2023-04-16T07:25:10.784Z,1.27
2023-04-16T07:26:27.696Z,1.26
2023-04-16T07:27:44.718Z,0.6
2023-04-16T07:29:01.702Z,1.2
2023-04-16T07:30:18.872Z,1.35
2023-04-16T07:31:35.741Z,0.76
2023-04-16T07:32:52.769Z,1.05
2023-04-16T07:34:09.691Z,0.27
2023-04-16T07:35:26.698Z,0.62
2023-04-16T07:36:43.708Z,0.81
2023-04-16T07:38:00.777Z,1.19
2023-04-16T07:39:17.712Z,1.18
2023-04-16T07:40:34.758Z,1.47
2023-04-16T07:41:55.178Z,0.79
2023-04-16T07:43:09.718Z,0.46
2023-04-16T07:44:26.737Z,1.65
2023-04-16T07:45:43.761Z,1.66
2023-04-16T07:47:01.616Z,2.04
2023-04-16T07:48:17.729Z,1.4
2023-04-16T07:49:34.726Z,2.21
2023-04-16T07:50:51.741Z,0.83
2023-04-16T07:52:08.882Z,0.53
2023-04-16T07:53:26.091Z,0.44
2023-04-16T07:54:42.735Z,0.47
2023-04-16T07:55:59.769Z,0.42
2023-04-16T07:57:16.765Z,1.25
2023-04-16T07:58:33.785Z,0.44
2023-04-16T07:59:50.760Z,0.75
2023-04-16T08:01:07.767Z,0.76
2023-04-16T08:02:24.868Z,1.81
2023-04-16T08:03:41.865Z,0.89
2023-04-16T08:04:58.980Z,0.8
2023-04-16T08:06:15.762Z,0.47
2023-04-16T08:07:34.445Z,0.8
2023-04-16T08:08:49.789Z,0.2
2023-04-16T08:10:06.763Z,0.22
2023-04-16T08:11:23.774Z,1.48
2023-04-16T08:12:40.770Z,0.69
2023-04-16T08:13:57.784Z,0.25
2023-04-16T08:15:14.837Z,0.99
2023-04-16T08:16:31.777Z,0.32
2023-04-16T08:17:48.835Z,0.34
2023-04-16T08:19:05.834Z,0.49
2023-04-16T08:20:22.873Z,0.63
2023-04-16T08:21:39.838Z,0.94
2023-04-16T08:22:56.800Z,1.3
2023-04-16T08:24:13.799Z,1.63
2023-04-16T08:25:30.817Z,0.95
2023-04-16T08:26:47.861Z,1.56
2023-04-16T08:28:04.857Z,1.09
2023-04-16T08:29:21.797Z,1.07
2023-04-16T08:30:38.834Z,0.78
2023-04-16T08:31:55.924Z,1.27
2023-04-16T08:33:12.882Z,0.73
2023-04-16T08:34:29.845Z,0.44
2023-04-16T08:35:46.812Z,0.22
2023-04-16T08:37:03.864Z,0.16
2023-04-16T08:38:20.811Z,0.13
2023-04-16T08:39:37.875Z,0.51
2023-04-16T08:40:54.822Z,0.64
2023-04-16T08:42:11.889Z,0.46
2023-04-16T08:43:28.835Z,0.54
2023-04-16T08:44:46.912Z,0.78
2023-04-16T08:46:02.865Z,1.91
2023-04-16T08:47:19.937Z,1.84
2023-04-16T08:48:36.849Z,1.86
2023-04-16T08:49:53.829Z,2.09
2023-04-16T08:51:10.854Z,1.41
2023-04-16T08:52:27.889Z,0.88
2023-04-16T08:53:44.907Z,0.96
2023-04-16T08:55:01.829Z,0.87
2023-04-16T08:56:18.849Z,0.51
2023-04-16T08:57:35.913Z,0.26
2023-04-16T08:58:52.848Z,0.48
2023-04-16T09:00:09.895Z,1.14
2023-04-16T09:01:26.916Z,0.8
2023-04-16T09:02:44.126Z,0.36
2023-04-16T09:04:01.143Z,0.8
2023-04-16T09:05:17.878Z,1.06
2023-04-16T09:06:34.955Z,0.96
2023-04-16T09:07:51.872Z,0.59
2023-04-16T09:09:09.073Z,0.46
2023-04-16T09:10:25.901Z,0.42
2023-04-16T09:11:42.882Z,0.83
2023-04-16T09:12:59.922Z,0.5
2023-04-16T09:14:16.910Z,0.64
2023-04-16T09:15:35.111Z,0.46
2023-04-16T09:16:51.017Z,0.27
2023-04-16T09:18:07.910Z,0.65
2023-04-16T09:19:24.921Z,0.16
2023-04-16T09:20:41.880Z,0.39
2023-04-16T09:21:58.907Z,0.36
2023-04-16T09:23:15.912Z,0.14
2023-04-16T09:24:32.916Z,0.58
2023-04-16T09:25:49.915Z,0.6
2023-04-16T09:27:06.883Z,2.53
2023-04-16T09:28:23.986Z,2.05
2023-04-16T09:29:40.940Z,2.69
2023-04-16T09:30:57.903Z,1.4
2023-04-16T09:32:15.133Z,1.81
2023-04-16T09:33:33.791Z,0.79
2023-04-16T09:34:48.964Z,0.95
2023-04-16T09:36:05.933Z,1.9
2023-04-16T09:37:23.010Z,1.49
2023-04-16T09:38:39.904Z,1.18
2023-04-16T09:39:56.931Z,2.05
2023-04-16T09:41:13.917Z,0.93
2023-04-16T09:42:30.976Z,0.48
2023-04-16T09:43:47.965Z,0.9
2023-04-16T09:45:05.856Z,1.01
2023-04-16T09:46:21.984Z,1.17
2023-04-16T09:47:38.951Z,0.47
2023-04-16T09:48:55.956Z,0.56
2023-04-16T09:50:13.301Z,0.99
2023-04-16T09:51:29.949Z,0.84
2023-04-16T09:52:46.930Z,1.74
2023-04-16T09:54:03.979Z,2.3
2023-04-16T09:55:20.938Z,1.46
2023-04-16T09:56:37.941Z,1.22
2023-04-16T09:57:54.972Z,1.58
2023-04-16T09:59:12.083Z,1.33
2023-04-16T10:00:29.678Z,0.51
2023-04-16T10:01:46.994Z,0.62
2023-04-16T10:03:04.119Z,1.06
2023-04-16T10:04:21.052Z,0.74
2023-04-16T10:05:37.973Z,0.83
2023-04-16T10:06:55.847Z,0.54
2023-04-16T10:08:11.989Z,0.93
2023-04-16T10:09:29.010Z,1.05
2023-04-16T10:10:46.060Z,0.28
2023-04-16T10:12:02.981Z,0.36
2023-04-16T10:13:20.006Z,0.3
2023-04-16T10:14:37.367Z,0.75
2023-04-16T10:15:53.954Z,1.39
2023-04-16T10:17:11.043Z,0.95
2023-04-16T10:18:28.084Z,0.28
2023-04-16T10:19:45.086Z,0.16
2023-04-16T10:21:01.971Z,0.83
2023-04-16T10:22:19.032Z,0.42
2023-04-16T10:23:36.063Z,0.22
2023-04-16T10:24:52.991Z,0.46
2023-04-16T10:26:10.025Z,0.17
2023-04-16T10:27:27.018Z,0.34
2023-04-16T10:28:44.059Z,0.48
2023-04-16T10:30:01.095Z,0.75
2023-04-16T10:31:18.132Z,0.53
2023-04-16T10:32:35.120Z,0.75
2023-04-16T10:33:52.029Z,0.77
2023-04-16T10:35:09.024Z,1.09
2023-04-16T10:36:26.043Z,0.24
2023-04-16T10:37:43.057Z,0.86
2023-04-16T10:39:00.198Z,0.7
2023-04-16T10:40:17.061Z,1.38
2023-04-16T10:41:34.034Z,1.12
2023-04-16T10:42:51.032Z,0.7
2023-04-16T10:44:08.081Z,0.8
2023-04-16T10:45:25.131Z,0.85
2023-04-16T10:46:42.157Z,0.8
2023-04-16T10:47:59.089Z,0.5
2023-04-16T10:49:16.102Z,0.96
2023-04-16T10:50:33.014Z,0.67
2023-04-16T10:51:50.053Z,0.9
2023-04-16T10:53:07.049Z,0.53
2023-04-16T10:54:24.067Z,0.72
2023-04-16T10:55:41.062Z,0.35
2023-04-16T10:56:58.057Z,0.43
2023-04-16T10:58:15.054Z,0.77
2023-04-16T10:59:32.133Z,0.34
2023-04-16T11:00:49.086Z,0.4
2023-04-16T11:02:06.211Z,0.89
2023-04-16T11:03:23.201Z,0.68
2023-04-16T11:04:40.371Z,0.7
2023-04-16T11:05:57.044Z,0.69
2023-04-16T11:07:14.072Z,0.58
2023-04-16T11:08:31.050Z,0.74
2023-04-16T11:09:48.132Z,0.43
2023-04-16T11:11:05.065Z,0.61
2023-04-16T11:12:22.058Z,0.58
2023-04-16T11:13:39.202Z,0.62
2023-04-16T11:14:56.096Z,0.65
2023-04-16T11:16:13.181Z,0.1
2023-04-16T11:17:30.088Z,0.47
2023-04-16T11:18:48.848Z,0.4
2023-04-16T11:20:04.103Z,0.6
2023-04-16T11:21:21.104Z,0.43
2023-04-16T11:22:38.084Z,0.53
2023-04-16T11:23:55.127Z,0.58
2023-04-16T11:25:12.192Z,0.44
2023-04-16T11:26:29.093Z,0.26
2023-04-16T11:27:46.097Z,1.11
2023-04-16T11:29:03.115Z,0.63
2023-04-16T11:30:20.100Z,0.58
2023-04-16T11:31:37.172Z,0.33
2023-04-16T11:32:54.165Z,1.06
2023-04-16T11:34:11.086Z,0.57
2023-04-16T11:35:28.158Z,0.68
2023-04-16T11:36:45.098Z,0.42
2023-04-16T11:38:02.146Z,0.5
2023-04-16T11:39:19.107Z,0.74
2023-04-16T11:40:36.191Z,0.57
2023-04-16T11:41:53.100Z,0.46
2023-04-16T11:43:10.106Z,0.98
2023-04-16T11:44:27.147Z,0.27
2023-04-16T11:45:44.182Z,0.37
2023-04-16T11:47:01.153Z,0.7
2023-04-16T11:48:18.188Z,0.62
2023-04-16T11:49:35.282Z,0.3
2023-04-16T11:50:52.224Z,0.23
2023-04-16T11:52:09.121Z,0.83
2023-04-16T11:53:26.149Z,0.59
2023-04-16T11:54:43.154Z,0.5
2023-04-16T11:56:00.200Z,1.46
2023-04-16T11:57:17.143Z,1.04
2023-04-16T11:58:34.148Z,2.15
2023-04-16T12:00:01.103Z,0.55
2023-04-16T12:01:08.188Z,0.8
2023-04-16T12:02:25.309Z,0.67
2023-04-16T12:03:42.434Z,0.98
2023-04-16T12:04:59.207Z,0.62
2023-04-16T12:06:16.199Z,0.5
2023-04-16T12:07:33.154Z,0.64
2023-04-16T12:08:50.170Z,0.24
2023-04-16T12:10:07.163Z,0.34
2023-04-16T12:11:24.180Z,1.25
2023-04-16T12:12:41.212Z,1.32
2023-04-16T12:13:58.164Z,0.93
2023-04-16T12:15:15.184Z,0.62
2023-04-16T12:16:33.732Z,0.54
2023-04-16T12:17:49.238Z,0.51
2023-04-16T12:19:06.206Z,0.75
2023-04-16T12:20:23.175Z,0.61
2023-04-16T12:21:40.184Z,0.37
2023-04-16T12:22:57.231Z,0.3
2023-04-16T12:24:14.194Z,0.24
2023-04-16T12:25:31.181Z,0.46
2023-04-16T12:26:48.198Z,0.51
2023-04-16T12:28:05.245Z,0.51
2023-04-16T12:29:22.184Z,0.31
2023-04-16T12:30:39.207Z,0.83
2023-04-16T12:31:56.251Z,1.36
2023-04-16T12:33:13.470Z,0.78
2023-04-16T12:34:48.664Z,0.65
2023-04-16T12:35:47.194Z,0.97
2023-04-16T12:37:04.209Z,1.71
2023-04-16T12:38:22.912Z,0.74
2023-04-16T12:39:38.262Z,1.29
2023-04-16T12:40:55.197Z,1.56
2023-04-16T12:42:12.254Z,0.79
2023-04-16T12:43:29.298Z,0.39
2023-04-16T12:44:46.254Z,0.76
2023-04-16T12:46:04.354Z,0.6
2023-04-16T12:47:20.289Z,0.34
2023-04-16T12:48:37.274Z,0.74
2023-04-16T12:49:54.249Z,0.8
2023-04-16T12:51:11.239Z,1.14
2023-04-16T12:52:28.225Z,1.1
2023-04-16T12:53:45.266Z,0.53
2023-04-16T12:55:02.249Z,0.39
2023-04-16T12:56:19.240Z,0.54
2023-04-16T12:57:36.256Z,0.5
2023-04-16T12:58:53.283Z,0.62
2023-04-16T13:00:10.348Z,0.59
2023-04-16T13:01:27.774Z,0.58
2023-04-16T13:02:44.377Z,0.6
2023-04-16T13:04:01.401Z,0.8
2023-04-16T13:05:18.259Z,0.61
2023-04-16T13:06:35.291Z,0.96
2023-04-16T13:07:52.263Z,0.53
2023-04-16T13:09:09.440Z,0.8
2023-04-16T13:10:26.274Z,1.34
2023-04-16T13:11:43.366Z,0.37
2023-04-16T13:13:00.294Z,0.61
2023-04-16T13:14:17.354Z,0.12
2023-04-16T13:15:34.333Z,0
2023-04-16T13:16:51.327Z,0.14
2023-04-16T13:18:08.304Z,1.29
2023-04-16T13:19:25.326Z,1.06
2023-04-16T13:20:42.316Z,0.41
2023-04-16T13:21:59.321Z,0.5
2023-04-16T13:23:16.659Z,0.4
2023-04-16T13:24:33.266Z,0.21
2023-04-16T13:25:50.687Z,0.3
2023-04-16T13:27:07.311Z,0.34
2023-04-16T13:28:24.323Z,0.38
2023-04-16T13:29:41.277Z,0.4
2023-04-16T13:30:58.391Z,0.82
2023-04-16T13:32:15.381Z,1.09
2023-04-16T13:33:32.320Z,1.39
2023-04-16T13:34:49.333Z,0.97
2023-04-16T13:36:06.329Z,0.77
2023-04-16T13:37:23.307Z,0.77
2023-04-16T13:38:40.352Z,0.83
2023-04-16T13:39:57.447Z,0.65
2023-04-16T13:41:14.484Z,0.71
2023-04-16T13:42:31.337Z,0.55
2023-04-16T13:43:48.313Z,0.98
2023-04-16T13:45:05.712Z,0.29
2023-04-16T13:46:22.353Z,0.42
2023-04-16T13:47:39.362Z,0.67
2023-04-16T13:48:56.327Z,0.41
2023-04-16T13:50:13.396Z,0.41
2023-04-16T13:51:30.344Z,0.14
2023-04-16T13:52:47.385Z,0.54
2023-04-16T13:54:04.392Z,0.86
2023-04-16T13:55:21.416Z,0.68
2023-04-16T13:56:38.357Z,0.62
2023-04-16T13:57:55.380Z,0.38
2023-04-16T13:59:12.392Z,0
2023-04-16T14:00:29.409Z,0.41
2023-04-16T14:01:46.384Z,0.71
2023-04-16T14:03:03.522Z,0.38
2023-04-16T14:04:20.420Z,0.32
2023-04-16T14:05:37.426Z,0.72
2023-04-16T14:06:54.342Z,0.66
2023-04-16T14:08:11.444Z,0.48
2023-04-16T14:09:28.358Z,0.63
2023-04-16T14:10:45.523Z,0.9
2023-04-16T14:12:02.361Z,1.17
2023-04-16T14:13:19.367Z,0.52
2023-04-16T14:14:36.387Z,0.87
2023-04-16T14:15:53.391Z,0.49
2023-04-16T14:17:10.388Z,0.83
2023-04-16T14:18:27.440Z,0.52
2023-04-16T14:19:44.382Z,0.86
2023-04-16T14:21:01.431Z,1.15
2023-04-16T14:22:18.404Z,1.16
2023-04-16T14:23:35.411Z,1.23
2023-04-16T14:24:52.418Z,1.17
2023-04-16T14:26:09.445Z,1.04
2023-04-16T14:27:26.391Z,0.8
2023-04-16T14:28:43.441Z,1.37
2023-04-16T14:30:00.438Z,1.02
2023-04-16T14:31:17.470Z,2.13
2023-04-16T14:32:34.406Z,1.45
2023-04-16T14:33:51.376Z,1.58
2023-04-16T14:35:08.430Z,1.17
2023-04-16T14:36:25.461Z,0.68
2023-04-16T14:37:42.430Z,0.27
2023-04-16T14:38:59.422Z,0.61
2023-04-16T14:40:16.825Z,0.49
2023-04-16T14:41:33.442Z,1.43
2023-04-16T14:42:50.449Z,1.32
2023-04-16T14:44:07.401Z,0.43
2023-04-16T14:45:24.487Z,0.75
2023-04-16T14:46:41.455Z,0.54
2023-04-16T14:47:58.473Z,1.34
2023-04-16T14:49:15.599Z,1.05
2023-04-16T14:50:32.461Z,0.93
2023-04-16T14:51:49.459Z,0.31
2023-04-16T14:53:06.435Z,0.51
2023-04-16T14:54:23.445Z,2.14
2023-04-16T14:55:40.520Z,1.83
2023-04-16T14:56:57.444Z,1.05
2023-04-16T14:58:14.463Z,1.45
2023-04-16T14:59:31.529Z,1.44
2023-04-16T15:00:48.517Z,1.01
2023-04-16T15:02:05.564Z,1.11
2023-04-16T15:03:22.798Z,1.41
2023-04-16T15:04:39.444Z,0.96
2023-04-16T15:05:56.516Z,1.4
2023-04-16T15:07:13.473Z,1.4
2023-04-16T15:08:30.448Z,0.59
2023-04-16T15:09:47.469Z,0.43
2023-04-16T15:11:04.516Z,0.51
2023-04-16T15:12:21.469Z,0.89
2023-04-16T15:13:38.493Z,0.66
2023-04-16T15:14:55.492Z,0.28
2023-04-16T15:16:12.703Z,0.76
2023-04-16T15:17:29.480Z,0.75
2023-04-16T15:18:46.562Z,0.27
2023-04-16T15:20:03.500Z,0.6
2023-04-16T15:21:20.485Z,1.74
2023-04-16T15:22:37.535Z,0.96
2023-04-16T15:23:54.537Z,1.07
2023-04-16T15:25:11.499Z,0.73
2023-04-16T15:26:28.517Z,1.19
2023-04-16T15:27:45.533Z,1.12
2023-04-16T15:29:02.606Z,0.94
2023-04-16T15:30:19.701Z,0.96
2023-04-16T15:31:36.523Z,1.08
2023-04-16T15:32:53.555Z,0.62
2023-04-16T15:34:10.691Z,1.22
2023-04-16T15:35:27.492Z,1.01
2023-04-16T15:36:44.510Z,0.95
2023-04-16T15:38:01.536Z,1
2023-04-16T15:39:18.548Z,0.67
2023-04-16T15:40:35.580Z,0.86
2023-04-16T15:43:10.086Z,1.54
2023-04-16T15:44:26.516Z,1.27
2023-04-16T15:45:43.570Z,1.59
2023-04-16T15:47:00.522Z,1.04
2023-04-16T15:48:17.536Z,1.28
2023-04-16T15:49:34.552Z,1.34
2023-04-16T15:50:51.560Z,0.91
2023-04-16T15:52:08.640Z,0.75
2023-04-16T15:53:25.594Z,0.71
2023-04-16T15:54:42.547Z,1
2023-04-16T15:55:59.570Z,0.7
2023-04-16T15:57:16.555Z,1.03
2023-04-16T15:58:33.558Z,1.38
2023-04-16T16:00:05.762Z,1.66
2023-04-16T16:01:07.620Z,0.71
2023-04-16T16:02:24.832Z,1
2023-04-16T16:03:41.727Z,1.1
2023-04-16T16:04:58.583Z,0.73
2023-04-16T16:06:15.607Z,1.2
2023-04-16T16:07:32.541Z,1.09
2023-04-16T16:08:49.584Z,1.13
2023-04-16T16:10:06.556Z,1.14
2023-04-16T16:11:23.660Z,1.28
2023-04-16T16:12:40.588Z,0.69
2023-04-16T16:13:57.569Z,0.95
2023-04-16T16:15:14.591Z,0.7
2023-04-16T16:16:31.631Z,0.97
2023-04-16T16:17:48.713Z,0.7
2023-04-16T16:19:05.588Z,1.16
2023-04-16T16:20:22.633Z,0.8
2023-04-16T16:21:39.608Z,1.1
2023-04-16T16:22:56.607Z,0.89
2023-04-16T16:24:13.607Z,0.77
2023-04-16T16:25:30.608Z,1.02
2023-04-16T16:26:47.592Z,0.87
2023-04-16T16:28:06.090Z,0.8
2023-04-16T16:29:21.620Z,0.49
2023-04-16T16:30:38.608Z,0.94
2023-04-16T16:31:55.686Z,0.49
2023-04-16T16:33:12.640Z,1.32
2023-04-16T16:34:29.607Z,0.8
2023-04-16T16:35:46.597Z,0.84
2023-04-16T16:37:03.630Z,0.62
2023-04-16T16:38:20.714Z,1.41
2023-04-16T16:39:38.800Z,1.36
2023-04-16T16:40:54.612Z,1.22
2023-04-16T16:42:11.618Z,0.91
2023-04-16T16:43:28.624Z,0.89
2023-04-16T16:44:45.659Z,1.23
2023-04-16T16:46:02.617Z,1.28
2023-04-16T16:47:19.658Z,0.69
2023-04-16T16:48:36.626Z,0.6
2023-04-16T16:49:53.611Z,0.77
2023-04-16T16:51:10.619Z,1.11
2023-04-16T16:52:27.669Z,0.87
2023-04-16T16:53:44.747Z,0.66
2023-04-16T16:55:01.660Z,0.44
2023-04-16T16:56:18.688Z,0.62
2023-04-16T16:57:35.670Z,0.7
2023-04-16T16:58:52.652Z,0.5
2023-04-16T17:00:10.160Z,0.59
2023-04-16T17:01:26.861Z,0.46
2023-04-16T17:02:43.975Z,0.53
2023-04-16T17:04:00.735Z,0.55
2023-04-16T17:05:17.666Z,0.36
2023-04-16T17:06:34.690Z,0.4
2023-04-16T17:07:51.698Z,0.48
2023-04-16T17:09:08.785Z,0.55
2023-04-16T17:10:25.712Z,0.5
2023-04-16T17:11:42.683Z,0.41
2023-04-16T17:12:59.705Z,0.35
2023-04-16T17:14:16.660Z,0.39
2023-04-16T17:15:33.657Z,0.22
2023-04-16T17:16:50.856Z,0.28
2023-04-16T17:18:07.838Z,0.28
2023-04-16T17:19:24.671Z,0.21
2023-04-16T17:20:41.849Z,0.11